sensor_id;sensor_type;location;lat;lon;timestamp;P1;durP1;ratioP1;P2;durP2;ratioP2
11935;SDS011;6027;48.576;9.180;2023-01-13T00:00:19;1.70;;;0.70;;
11935;SDS011;6027;48.576;9.180;2023-01-13T00:02:45;2.28;;;0.57;;
11935;SDS011;6027;48.576;9.180;2023-01-13T00:05:10;1.55;;;0.68;;
11935;SDS011;6027;48.576;9.180;2023-01-13T00:07:36;1.70;;;0.57;;
11935;SDS011;6027;48.576;9.180;2023-01-13T00:10:04;2.05;;;0.60;;
11935;SDS011;6027;48.576;9.180;2023-01-13T00:12:32;2.17;;;0.70;;
11935;SDS011;6027;48.576;9.180;2023-01-13T00:14:57;2.03;;;0.70;;
11935;SDS011;6027;48.576;9.180;2023-01-13T00:17:23;1.17;;;0.68;;
11935;SDS011;6027;48.576;9.180;2023-01-13T00:19:48;2.67;;;0.47;;
11935;SDS011;6027;48.576;9.180;2023-01-13T00:22:14;1.08;;;0.80;;
11935;SDS011;6027;48.576;9.180;2023-01-13T00:24:39;1.48;;;0.90;;
11935;SDS011;6027;48.576;9.180;2023-01-13T00:27:04;0.95;;;0.50;;
11935;SDS011;6027;48.576;9.180;2023-01-13T00:29:30;1.17;;;0.65;;
11935;SDS011;6027;48.576;9.180;2023-01-13T00:31:55;3.90;;;1.27;;
11935;SDS011;6027;48.576;9.180;2023-01-13T00:34:21;1.00;;;0.50;;
11935;SDS011;6027;48.576;9.180;2023-01-13T00:36:46;3.13;;;0.50;;
11935;SDS011;6027;48.576;9.180;2023-01-13T00:39:12;1.95;;;0.70;;
11935;SDS011;6027;48.576;9.180;2023-01-13T00:41:37;1.13;;;0.55;;
11935;SDS011;6027;48.576;9.180;2023-01-13T00:44:21;1.48;;;0.60;;
11935;SDS011;6027;48.576;9.180;2023-01-13T00:46:46;2.05;;;0.82;;
11935;SDS011;6027;48.576;9.180;2023-01-13T00:49:12;1.10;;;0.70;;
11935;SDS011;6027;48.576;9.180;2023-01-13T00:51:37;3.25;;;0.88;;
11935;SDS011;6027;48.576;9.180;2023-01-13T00:54:03;2.28;;;0.80;;
11935;SDS011;6027;48.576;9.180;2023-01-13T00:56:28;1.23;;;0.52;;
11935;SDS011;6027;48.576;9.180;2023-01-13T00:58:54;1.58;;;0.70;;
11935;SDS011;6027;48.576;9.180;2023-01-13T01:01:22;1.63;;;0.88;;
11935;SDS011;6027;48.576;9.180;2023-01-13T01:03:48;2.58;;;0.68;;
11935;SDS011;6027;48.576;9.180;2023-01-13T01:06:17;1.40;;;0.60;;
11935;SDS011;6027;48.576;9.180;2023-01-13T01:08:46;1.45;;;0.50;;
11935;SDS011;6027;48.576;9.180;2023-01-13T01:13:42;1.60;;;0.60;;
11935;SDS011;6027;48.576;9.180;2023-01-13T01:16:12;0.73;;;0.47;;
11935;SDS011;6027;48.576;9.180;2023-01-13T01:18:41;2.50;;;0.88;;
11935;SDS011;6027;48.576;9.180;2023-01-13T01:21:08;2.05;;;0.70;;
11935;SDS011;6027;48.576;9.180;2023-01-13T01:23:35;2.17;;;0.60;;
11935;SDS011;6027;48.576;9.180;2023-01-13T01:26:02;1.63;;;0.65;;
11935;SDS011;6027;48.576;9.180;2023-01-13T01:28:30;2.60;;;0.80;;
11935;SDS011;6027;48.576;9.180;2023-01-13T01:30:56;1.58;;;1.02;;
11935;SDS011;6027;48.576;9.180;2023-01-13T01:33:23;1.52;;;0.60;;
11935;SDS011;6027;48.576;9.180;2023-01-13T01:35:49;0.75;;;0.55;;
11935;SDS011;6027;48.576;9.180;2023-01-13T01:38:14;1.17;;;0.50;;
11935;SDS011;6027;48.576;9.180;2023-01-13T01:40:40;0.88;;;0.63;;
11935;SDS011;6027;48.576;9.180;2023-01-13T01:43:13;1.42;;;0.70;;
11935;SDS011;6027;48.576;9.180;2023-01-13T01:45:58;1.33;;;0.50;;
11935;SDS011;6027;48.576;9.180;2023-01-13T01:48:25;2.22;;;0.40;;
11935;SDS011;6027;48.576;9.180;2023-01-13T01:50:52;0.65;;;0.50;;
11935;SDS011;6027;48.576;9.180;2023-01-13T01:53:18;2.17;;;0.60;;
11935;SDS011;6027;48.576;9.180;2023-01-13T01:55:48;2.22;;;0.57;;
11935;SDS011;6027;48.576;9.180;2023-01-13T01:58:17;1.70;;;0.60;;
11935;SDS011;6027;48.576;9.180;2023-01-13T02:00:47;1.35;;;0.73;;
11935;SDS011;6027;48.576;9.180;2023-01-13T02:03:13;1.23;;;0.45;;
11935;SDS011;6027;48.576;9.180;2023-01-13T02:05:40;1.50;;;0.70;;
11935;SDS011;6027;48.576;9.180;2023-01-13T02:08:07;2.22;;;0.60;;
11935;SDS011;6027;48.576;9.180;2023-01-13T02:10:34;1.42;;;0.73;;
11935;SDS011;6027;48.576;9.180;2023-01-13T02:13:01;2.72;;;0.60;;
11935;SDS011;6027;48.576;9.180;2023-01-13T02:15:54;2.47;;;0.60;;
11935;SDS011;6027;48.576;9.180;2023-01-13T02:18:41;2.92;;;0.65;;
11935;SDS011;6027;48.576;9.180;2023-01-13T02:21:33;2.03;;;0.75;;
11935;SDS011;6027;48.576;9.180;2023-01-13T02:35:59;1.98;;;0.50;;
11935;SDS011;6027;48.576;9.180;2023-01-13T02:38:43;1.38;;;0.60;;
11935;SDS011;6027;48.576;9.180;2023-01-13T02:44:47;1.50;;;0.63;;
11935;SDS011;6027;48.576;9.180;2023-01-13T02:47:23;1.40;;;0.60;;
11935;SDS011;6027;48.576;9.180;2023-01-13T02:49:55;1.65;;;0.57;;
11935;SDS011;6027;48.576;9.180;2023-01-13T02:52:25;1.67;;;0.50;;
11935;SDS011;6027;48.576;9.180;2023-01-13T02:55:05;1.65;;;0.50;;
11935;SDS011;6027;48.576;9.180;2023-01-13T02:57:34;2.58;;;0.55;;
11935;SDS011;6027;48.576;9.180;2023-01-13T03:00:03;1.40;;;0.63;;
11935;SDS011;6027;48.576;9.180;2023-01-13T03:02:30;2.33;;;0.90;;
11935;SDS011;6027;48.576;9.180;2023-01-13T03:04:56;2.88;;;0.60;;
11935;SDS011;6027;48.576;9.180;2023-01-13T03:15:46;1.55;;;0.60;;
11935;SDS011;6027;48.576;9.180;2023-01-13T03:21:17;1.40;;;0.60;;
11935;SDS011;6027;48.576;9.180;2023-01-13T03:24:15;1.63;;;0.50;;
11935;SDS011;6027;48.576;9.180;2023-01-13T03:26:45;0.60;;;0.47;;
11935;SDS011;6027;48.576;9.180;2023-01-13T03:29:22;2.00;;;0.60;;
11935;SDS011;6027;48.576;9.180;2023-01-13T03:34:37;1.85;;;0.93;;
11935;SDS011;6027;48.576;9.180;2023-01-13T03:37:25;2.13;;;0.88;;
11935;SDS011;6027;48.576;9.180;2023-01-13T03:40:40;1.40;;;0.50;;
11935;SDS011;6027;48.576;9.180;2023-01-13T03:42:54;1.63;;;0.93;;
11935;SDS011;6027;48.576;9.180;2023-01-13T03:45:43;0.77;;;0.50;;
11935;SDS011;6027;48.576;9.180;2023-01-13T03:48:15;1.27;;;0.65;;
11935;SDS011;6027;48.576;9.180;2023-01-13T03:50:52;1.35;;;0.60;;
11935;SDS011;6027;48.576;9.180;2023-01-13T03:53:27;0.73;;;0.50;;
11935;SDS011;6027;48.576;9.180;2023-01-13T03:55:58;1.15;;;0.52;;
11935;SDS011;6027;48.576;9.180;2023-01-13T03:58:38;1.75;;;0.73;;
11935;SDS011;6027;48.576;9.180;2023-01-13T04:03:42;1.95;;;0.77;;
11935;SDS011;6027;48.576;9.180;2023-01-13T04:06:13;0.95;;;0.50;;
11935;SDS011;6027;48.576;9.180;2023-01-13T04:08:48;2.35;;;0.60;;
11935;SDS011;6027;48.576;9.180;2023-01-13T04:11:22;1.42;;;0.60;;
11935;SDS011;6027;48.576;9.180;2023-01-13T04:13:59;0.60;;;0.30;;
11935;SDS011;6027;48.576;9.180;2023-01-13T04:16:27;0.45;;;0.35;;
11935;SDS011;6027;48.576;9.180;2023-01-13T04:18:53;1.10;;;0.50;;
11935;SDS011;6027;48.576;9.180;2023-01-13T04:21:19;1.48;;;0.70;;
11935;SDS011;6027;48.576;9.180;2023-01-13T04:23:44;1.50;;;0.52;;
11935;SDS011;6027;48.576;9.180;2023-01-13T04:26:10;1.75;;;0.60;;
11935;SDS011;6027;48.576;9.180;2023-01-13T04:28:35;1.10;;;0.47;;
11935;SDS011;6027;48.576;9.180;2023-01-13T04:31:01;1.50;;;0.50;;
11935;SDS011;6027;48.576;9.180;2023-01-13T04:33:26;1.13;;;0.70;;
11935;SDS011;6027;48.576;9.180;2023-01-13T04:35:52;2.15;;;0.50;;
11935;SDS011;6027;48.576;9.180;2023-01-13T04:38:18;0.45;;;0.45;;
11935;SDS011;6027;48.576;9.180;2023-01-13T04:40:45;1.35;;;0.40;;
11935;SDS011;6027;48.576;9.180;2023-01-13T04:43:11;1.17;;;0.50;;
11935;SDS011;6027;48.576;9.180;2023-01-13T04:45:36;1.25;;;0.60;;
11935;SDS011;6027;48.576;9.180;2023-01-13T04:48:02;2.15;;;1.35;;
11935;SDS011;6027;48.576;9.180;2023-01-13T04:50:28;3.15;;;1.60;;
11935;SDS011;6027;48.576;9.180;2023-01-13T04:52:54;9.38;;;4.93;;
11935;SDS011;6027;48.576;9.180;2023-01-13T04:55:23;4.35;;;2.13;;
11935;SDS011;6027;48.576;9.180;2023-01-13T04:57:49;2.25;;;0.85;;
11935;SDS011;6027;48.576;9.180;2023-01-13T05:00:15;1.20;;;0.50;;
11935;SDS011;6027;48.576;9.180;2023-01-13T05:02:43;0.95;;;0.60;;
11935;SDS011;6027;48.576;9.180;2023-01-13T05:05:08;0.65;;;0.50;;
11935;SDS011;6027;48.576;9.180;2023-01-13T05:07:35;1.20;;;0.70;;
11935;SDS011;6027;48.576;9.180;2023-01-13T05:10:00;1.00;;;0.60;;
11935;SDS011;6027;48.576;9.180;2023-01-13T05:12:26;1.17;;;0.30;;
11935;SDS011;6027;48.576;9.180;2023-01-13T05:15:13;1.17;;;0.60;;
11935;SDS011;6027;48.576;9.180;2023-01-13T05:17:58;0.73;;;0.32;;
11935;SDS011;6027;48.576;9.180;2023-01-13T05:20:24;0.65;;;0.40;;
11935;SDS011;6027;48.576;9.180;2023-01-13T05:22:50;0.60;;;0.35;;
11935;SDS011;6027;48.576;9.180;2023-01-13T05:25:36;0.75;;;0.35;;
11935;SDS011;6027;48.576;9.180;2023-01-13T05:28:04;0.77;;;0.60;;
11935;SDS011;6027;48.576;9.180;2023-01-13T05:30:30;0.20;;;0.20;;
11935;SDS011;6027;48.576;9.180;2023-01-13T05:32:57;0.30;;;0.30;;
11935;SDS011;6027;48.576;9.180;2023-01-13T05:35:23;0.40;;;0.35;;
11935;SDS011;6027;48.576;9.180;2023-01-13T05:37:49;0.60;;;0.40;;
11935;SDS011;6027;48.576;9.180;2023-01-13T05:40:15;0.88;;;0.47;;
11935;SDS011;6027;48.576;9.180;2023-01-13T05:43:01;0.50;;;0.28;;
11935;SDS011;6027;48.576;9.180;2023-01-13T05:48:20;0.95;;;0.60;;
11935;SDS011;6027;48.576;9.180;2023-01-13T05:50:47;1.00;;;0.50;;
11935;SDS011;6027;48.576;9.180;2023-01-13T05:53:13;0.93;;;0.60;;
11935;SDS011;6027;48.576;9.180;2023-01-13T05:55:40;0.80;;;0.30;;
11935;SDS011;6027;48.576;9.180;2023-01-13T05:58:07;1.13;;;0.57;;
11935;SDS011;6027;48.576;9.180;2023-01-13T06:00:34;0.47;;;0.20;;
11935;SDS011;6027;48.576;9.180;2023-01-13T06:03:00;0.30;;;0.30;;
11935;SDS011;6027;48.576;9.180;2023-01-13T06:05:26;0.65;;;0.50;;
11935;SDS011;6027;48.576;9.180;2023-01-13T06:07:54;1.20;;;0.95;;
11935;SDS011;6027;48.576;9.180;2023-01-13T06:10:21;4.88;;;0.90;;
11935;SDS011;6027;48.576;9.180;2023-01-13T06:12:46;1.08;;;0.40;;
11935;SDS011;6027;48.576;9.180;2023-01-13T06:15:12;1.58;;;0.70;;
11935;SDS011;6027;48.576;9.180;2023-01-13T06:17:37;0.75;;;0.50;;
11935;SDS011;6027;48.576;9.180;2023-01-13T06:20:03;0.75;;;0.60;;
11935;SDS011;6027;48.576;9.180;2023-01-13T06:22:29;0.82;;;0.82;;
11935;SDS011;6027;48.576;9.180;2023-01-13T06:24:56;0.35;;;0.35;;
11935;SDS011;6027;48.576;9.180;2023-01-13T06:27:23;1.35;;;0.40;;
11935;SDS011;6027;48.576;9.180;2023-01-13T06:29:48;0.47;;;0.43;;
11935;SDS011;6027;48.576;9.180;2023-01-13T06:32:15;0.98;;;0.30;;
11935;SDS011;6027;48.576;9.180;2023-01-13T06:34:45;0.35;;;0.35;;
11935;SDS011;6027;48.576;9.180;2023-01-13T06:37:13;0.63;;;0.60;;
11935;SDS011;6027;48.576;9.180;2023-01-13T06:39:44;0.90;;;0.70;;
11935;SDS011;6027;48.576;9.180;2023-01-13T06:42:10;3.70;;;0.65;;
11935;SDS011;6027;48.576;9.180;2023-01-13T06:44:55;0.85;;;0.50;;
11935;SDS011;6027;48.576;9.180;2023-01-13T06:47:20;0.40;;;0.40;;
11935;SDS011;6027;48.576;9.180;2023-01-13T06:49:46;0.95;;;0.52;;
11935;SDS011;6027;48.576;9.180;2023-01-13T06:52:12;0.30;;;0.30;;
11935;SDS011;6027;48.576;9.180;2023-01-13T06:54:37;0.43;;;0.30;;
11935;SDS011;6027;48.576;9.180;2023-01-13T06:57:03;0.30;;;0.30;;
11935;SDS011;6027;48.576;9.180;2023-01-13T06:59:28;0.40;;;0.40;;
11935;SDS011;6027;48.576;9.180;2023-01-13T07:01:54;0.47;;;0.28;;
11935;SDS011;6027;48.576;9.180;2023-01-13T07:04:19;0.40;;;0.40;;
11935;SDS011;6027;48.576;9.180;2023-01-13T07:06:45;0.95;;;0.32;;
11935;SDS011;6027;48.576;9.180;2023-01-13T07:09:10;0.75;;;0.70;;
11935;SDS011;6027;48.576;9.180;2023-01-13T07:11:36;0.80;;;0.60;;
11935;SDS011;6027;48.576;9.180;2023-01-13T07:14:01;0.30;;;0.30;;
11935;SDS011;6027;48.576;9.180;2023-01-13T07:16:45;0.47;;;0.40;;
11935;SDS011;6027;48.576;9.180;2023-01-13T07:19:11;0.50;;;0.40;;
11935;SDS011;6027;48.576;9.180;2023-01-13T07:21:36;0.70;;;0.70;;
11935;SDS011;6027;48.576;9.180;2023-01-13T07:24:02;0.45;;;0.45;;
11935;SDS011;6027;48.576;9.180;2023-01-13T07:26:27;0.70;;;0.65;;
11935;SDS011;6027;48.576;9.180;2023-01-13T07:28:53;0.73;;;0.60;;
11935;SDS011;6027;48.576;9.180;2023-01-13T07:31:19;0.52;;;0.50;;
11935;SDS011;6027;48.576;9.180;2023-01-13T07:33:45;0.77;;;0.50;;
11935;SDS011;6027;48.576;9.180;2023-01-13T07:36:11;0.50;;;0.40;;
11935;SDS011;6027;48.576;9.180;2023-01-13T07:38:37;0.70;;;0.50;;
11935;SDS011;6027;48.576;9.180;2023-01-13T07:41:05;0.65;;;0.43;;
11935;SDS011;6027;48.576;9.180;2023-01-13T07:43:50;0.45;;;0.40;;
11935;SDS011;6027;48.576;9.180;2023-01-13T07:46:16;0.43;;;0.40;;
11935;SDS011;6027;48.576;9.180;2023-01-13T07:48:42;0.63;;;0.40;;
11935;SDS011;6027;48.576;9.180;2023-01-13T07:53:43;0.40;;;0.40;;
11935;SDS011;6027;48.576;9.180;2023-01-13T07:56:09;0.20;;;0.20;;
11935;SDS011;6027;48.576;9.180;2023-01-13T07:58:38;0.30;;;0.30;;
11935;SDS011;6027;48.576;9.180;2023-01-13T08:01:09;0.52;;;0.40;;
11935;SDS011;6027;48.576;9.180;2023-01-13T08:03:37;0.50;;;0.50;;
11935;SDS011;6027;48.576;9.180;2023-01-13T08:06:02;1.13;;;0.43;;
11935;SDS011;6027;48.576;9.180;2023-01-13T08:08:29;0.30;;;0.30;;
11935;SDS011;6027;48.576;9.180;2023-01-13T08:10:57;0.60;;;0.40;;
11935;SDS011;6027;48.576;9.180;2023-01-13T08:13:25;0.30;;;0.30;;
11935;SDS011;6027;48.576;9.180;2023-01-13T08:15:52;0.50;;;0.50;;
11935;SDS011;6027;48.576;9.180;2023-01-13T08:18:22;0.40;;;0.30;;
11935;SDS011;6027;48.576;9.180;2023-01-13T08:20:48;0.60;;;0.35;;
11935;SDS011;6027;48.576;9.180;2023-01-13T08:23:16;2.17;;;0.50;;
11935;SDS011;6027;48.576;9.180;2023-01-13T08:25:42;0.30;;;0.30;;
11935;SDS011;6027;48.576;9.180;2023-01-13T08:28:08;1.33;;;0.70;;
11935;SDS011;6027;48.576;9.180;2023-01-13T08:30:34;1.20;;;0.43;;
11935;SDS011;6027;48.576;9.180;2023-01-13T08:32:59;1.77;;;0.60;;
11935;SDS011;6027;48.576;9.180;2023-01-13T08:37:53;1.60;;;0.60;;
11935;SDS011;6027;48.576;9.180;2023-01-13T08:40:18;0.63;;;0.50;;
11935;SDS011;6027;48.576;9.180;2023-01-13T08:42:45;0.50;;;0.43;;
11935;SDS011;6027;48.576;9.180;2023-01-13T08:45:10;1.27;;;0.60;;
11935;SDS011;6027;48.576;9.180;2023-01-13T08:47:38;2.80;;;0.50;;
11935;SDS011;6027;48.576;9.180;2023-01-13T08:50:04;0.57;;;0.40;;
11935;SDS011;6027;48.576;9.180;2023-01-13T08:52:30;1.73;;;0.70;;
11935;SDS011;6027;48.576;9.180;2023-01-13T08:54:56;1.20;;;0.52;;
11935;SDS011;6027;48.576;9.180;2023-01-13T08:57:22;2.28;;;0.68;;
11935;SDS011;6027;48.576;9.180;2023-01-13T08:59:47;1.95;;;0.80;;
11935;SDS011;6027;48.576;9.180;2023-01-13T09:02:16;1.80;;;0.50;;
11935;SDS011;6027;48.576;9.180;2023-01-13T09:04:45;0.50;;;0.38;;
11935;SDS011;6027;48.576;9.180;2023-01-13T09:07:11;0.85;;;0.68;;
11935;SDS011;6027;48.576;9.180;2023-01-13T09:09:37;1.63;;;0.65;;
11935;SDS011;6027;48.576;9.180;2023-01-13T09:12:03;0.65;;;0.40;;
11935;SDS011;6027;48.576;9.180;2023-01-13T09:14:47;1.33;;;0.70;;
11935;SDS011;6027;48.576;9.180;2023-01-13T09:17:13;1.13;;;0.60;;
11935;SDS011;6027;48.576;9.180;2023-01-13T09:19:39;1.65;;;0.60;;
11935;SDS011;6027;48.576;9.180;2023-01-13T09:22:04;0.80;;;0.70;;
11935;SDS011;6027;48.576;9.180;2023-01-13T09:24:30;0.77;;;0.70;;
11935;SDS011;6027;48.576;9.180;2023-01-13T09:26:56;1.38;;;1.00;;
11935;SDS011;6027;48.576;9.180;2023-01-13T09:29:21;0.73;;;0.70;;
11935;SDS011;6027;48.576;9.180;2023-01-13T09:31:47;3.15;;;1.58;;
11935;SDS011;6027;48.576;9.180;2023-01-13T09:34:14;2.30;;;1.50;;
11935;SDS011;6027;48.576;9.180;2023-01-13T09:37:00;1.83;;;1.13;;
11935;SDS011;6027;48.576;9.180;2023-01-13T09:39:26;1.85;;;1.50;;
11935;SDS011;6027;48.576;9.180;2023-01-13T09:41:55;1.20;;;1.10;;
11935;SDS011;6027;48.576;9.180;2023-01-13T09:44:58;5.15;;;0.77;;
11935;SDS011;6027;48.576;9.180;2023-01-13T09:47:38;1.95;;;0.65;;
11935;SDS011;6027;48.576;9.180;2023-01-13T09:50:21;1.05;;;0.60;;
11935;SDS011;6027;48.576;9.180;2023-01-13T09:52:53;1.48;;;0.73;;
11935;SDS011;6027;48.576;9.180;2023-01-13T09:57:54;0.45;;;0.45;;
11935;SDS011;6027;48.576;9.180;2023-01-13T10:00:20;1.10;;;0.47;;
11935;SDS011;6027;48.576;9.180;2023-01-13T10:08:17;1.77;;;1.55;;
11935;SDS011;6027;48.576;9.180;2023-01-13T10:10:48;0.88;;;0.70;;
11935;SDS011;6027;48.576;9.180;2023-01-13T10:13:20;0.82;;;0.50;;
11935;SDS011;6027;48.576;9.180;2023-01-13T10:15:53;0.30;;;0.20;;
11935;SDS011;6027;48.576;9.180;2023-01-13T10:27:32;0.40;;;0.40;;
11935;SDS011;6027;48.576;9.180;2023-01-13T10:30:09;1.75;;;1.23;;
11935;SDS011;6027;48.576;9.180;2023-01-13T10:33:01;0.60;;;0.60;;
11935;SDS011;6027;48.576;9.180;2023-01-13T10:38:31;0.40;;;0.22;;
11935;SDS011;6027;48.576;9.180;2023-01-13T10:46:16;1.10;;;0.40;;
11935;SDS011;6027;48.576;9.180;2023-01-13T10:51:23;0.93;;;0.60;;
11935;SDS011;6027;48.576;9.180;2023-01-13T10:53:54;1.88;;;0.90;;
11935;SDS011;6027;48.576;9.180;2023-01-13T10:56:38;1.30;;;0.80;;
11935;SDS011;6027;48.576;9.180;2023-01-13T11:04:28;2.05;;;0.40;;
11935;SDS011;6027;48.576;9.180;2023-01-13T11:06:56;1.10;;;0.45;;
11935;SDS011;6027;48.576;9.180;2023-01-13T11:09:22;1.15;;;0.68;;
11935;SDS011;6027;48.576;9.180;2023-01-13T11:11:50;0.30;;;0.20;;
11935;SDS011;6027;48.576;9.180;2023-01-13T11:17:19;0.30;;;0.30;;
11935;SDS011;6027;48.576;9.180;2023-01-13T11:19:59;2.37;;;0.30;;
11935;SDS011;6027;48.576;9.180;2023-01-13T11:22:46;0.20;;;0.20;;
11935;SDS011;6027;48.576;9.180;2023-01-13T11:25:23;1.37;;;0.93;;
11935;SDS011;6027;48.576;9.180;2023-01-13T11:28:04;3.00;;;1.50;;
11935;SDS011;6027;48.576;9.180;2023-01-13T11:33:37;0.97;;;0.83;;
11935;SDS011;6027;48.576;9.180;2023-01-13T11:36:27;2.57;;;1.50;;
11935;SDS011;6027;48.576;9.180;2023-01-13T11:41:47;2.27;;;1.37;;
11935;SDS011;6027;48.576;9.180;2023-01-13T11:44:43;6.93;;;3.60;;
11935;SDS011;6027;48.576;9.180;2023-01-13T11:47:14;2.03;;;0.50;;
11935;SDS011;6027;48.576;9.180;2023-01-13T11:49:45;0.60;;;0.43;;
11935;SDS011;6027;48.576;9.180;2023-01-13T11:58:25;1.37;;;0.50;;
11935;SDS011;6027;48.576;9.180;2023-01-13T12:03:23;1.73;;;0.60;;
11935;SDS011;6027;48.576;9.180;2023-01-13T12:08:44;2.10;;;1.00;;
11935;SDS011;6027;48.576;9.180;2023-01-13T12:11:26;2.97;;;0.70;;
11935;SDS011;6027;48.576;9.180;2023-01-13T12:14:24;0.97;;;0.53;;
11935;SDS011;6027;48.576;9.180;2023-01-13T12:17:01;1.80;;;0.70;;
11935;SDS011;6027;48.576;9.180;2023-01-13T12:19:31;1.77;;;0.80;;
11935;SDS011;6027;48.576;9.180;2023-01-13T12:24:34;2.93;;;1.10;;
11935;SDS011;6027;48.576;9.180;2023-01-13T12:27:09;1.70;;;0.80;;
11935;SDS011;6027;48.576;9.180;2023-01-13T12:29:39;1.90;;;1.10;;
11935;SDS011;6027;48.576;9.180;2023-01-13T12:32:07;3.67;;;1.70;;
11935;SDS011;6027;48.576;9.180;2023-01-13T12:43:23;2.67;;;1.07;;
11935;SDS011;6027;48.576;9.180;2023-01-13T12:49:02;1.23;;;0.83;;
11935;SDS011;6027;48.576;9.180;2023-01-13T12:51:32;2.07;;;1.00;;
11935;SDS011;6027;48.576;9.180;2023-01-13T12:54:01;2.33;;;1.00;;
11935;SDS011;6027;48.576;9.180;2023-01-13T12:56:47;2.50;;;1.17;;
11935;SDS011;6027;48.576;9.180;2023-01-13T12:59:34;4.67;;;3.23;;
11935;SDS011;6027;48.576;9.180;2023-01-13T13:04:44;2.20;;;1.40;;
11935;SDS011;6027;48.576;9.180;2023-01-13T13:07:15;2.70;;;1.70;;
11935;SDS011;6027;48.576;9.180;2023-01-13T13:09:53;4.67;;;3.43;;
11935;SDS011;6027;48.576;9.180;2023-01-13T13:15:25;3.70;;;1.50;;
11935;SDS011;6027;48.576;9.180;2023-01-13T13:21:04;5.53;;;1.20;;
11935;SDS011;6027;48.576;9.180;2023-01-13T13:40:24;2.93;;;1.10;;
11935;SDS011;6027;48.576;9.180;2023-01-13T13:43:10;2.78;;;1.17;;
11935;SDS011;6027;48.576;9.180;2023-01-13T13:45:56;4.80;;;1.30;;
11935;SDS011;6027;48.576;9.180;2023-01-13T13:48:48;5.18;;;1.40;;
11935;SDS011;6027;48.576;9.180;2023-01-13T13:51:23;4.40;;;1.30;;
11935;SDS011;6027;48.576;9.180;2023-01-13T13:53:53;3.23;;;1.10;;
11935;SDS011;6027;48.576;9.180;2023-01-13T13:56:23;3.53;;;1.33;;
11935;SDS011;6027;48.576;9.180;2023-01-13T13:58:51;4.53;;;1.70;;
11935;SDS011;6027;48.576;9.180;2023-01-13T14:01:28;3.38;;;1.35;;
11935;SDS011;6027;48.576;9.180;2023-01-13T14:04:03;5.17;;;2.33;;
11935;SDS011;6027;48.576;9.180;2023-01-13T14:06:30;3.73;;;1.50;;
11935;SDS011;6027;48.576;9.180;2023-01-13T14:08:56;3.30;;;1.23;;
11935;SDS011;6027;48.576;9.180;2023-01-13T14:11:29;3.77;;;1.17;;
11935;SDS011;6027;48.576;9.180;2023-01-13T14:14:04;2.58;;;1.00;;
11935;SDS011;6027;48.576;9.180;2023-01-13T14:16:31;3.08;;;1.08;;
11935;SDS011;6027;48.576;9.180;2023-01-13T14:18:58;2.53;;;1.20;;
11935;SDS011;6027;48.576;9.180;2023-01-13T14:21:25;3.37;;;1.17;;
11935;SDS011;6027;48.576;9.180;2023-01-13T14:23:59;2.87;;;1.00;;
11935;SDS011;6027;48.576;9.180;2023-01-13T14:26:34;3.03;;;0.90;;
11935;SDS011;6027;48.576;9.180;2023-01-13T14:29:04;3.27;;;1.43;;
11935;SDS011;6027;48.576;9.180;2023-01-13T14:31:30;4.03;;;1.02;;
11935;SDS011;6027;48.576;9.180;2023-01-13T14:33:57;3.75;;;1.05;;
11935;SDS011;6027;48.576;9.180;2023-01-13T14:36:44;2.75;;;1.30;;
11935;SDS011;6027;48.576;9.180;2023-01-13T14:44:15;9.50;;;5.72;;
11935;SDS011;6027;48.576;9.180;2023-01-13T14:46:44;4.10;;;1.07;;
11935;SDS011;6027;48.576;9.180;2023-01-13T14:51:48;4.22;;;1.30;;
11935;SDS011;6027;48.576;9.180;2023-01-13T15:08:01;5.20;;;1.23;;
11935;SDS011;6027;48.576;9.180;2023-01-13T15:10:33;2.73;;;1.00;;
11935;SDS011;6027;48.576;9.180;2023-01-13T15:13:06;5.97;;;1.23;;
11935;SDS011;6027;48.576;9.180;2023-01-13T15:15:48;3.70;;;1.57;;
11935;SDS011;6027;48.576;9.180;2023-01-13T15:18:16;3.70;;;1.40;;
11935;SDS011;6027;48.576;9.180;2023-01-13T15:20:42;3.63;;;1.13;;
11935;SDS011;6027;48.576;9.180;2023-01-13T15:23:07;3.50;;;1.40;;
11935;SDS011;6027;48.576;9.180;2023-01-13T15:25:34;3.50;;;1.20;;
11935;SDS011;6027;48.576;9.180;2023-01-13T15:28:00;5.23;;;1.60;;
11935;SDS011;6027;48.576;9.180;2023-01-13T15:30:26;2.27;;;0.90;;
11935;SDS011;6027;48.576;9.180;2023-01-13T15:32:53;5.55;;;1.30;;
11935;SDS011;6027;48.576;9.180;2023-01-13T15:35:20;5.63;;;1.50;;
11935;SDS011;6027;48.576;9.180;2023-01-13T15:37:47;4.65;;;1.25;;
11935;SDS011;6027;48.576;9.180;2023-01-13T15:40:17;6.50;;;1.57;;
11935;SDS011;6027;48.576;9.180;2023-01-13T15:42:47;3.90;;;1.40;;
11935;SDS011;6027;48.576;9.180;2023-01-13T15:45:31;4.53;;;1.90;;
11935;SDS011;6027;48.576;9.180;2023-01-13T15:48:19;5.47;;;1.70;;
11935;SDS011;6027;48.576;9.180;2023-01-13T15:50:45;3.97;;;1.23;;
11935;SDS011;6027;48.576;9.180;2023-01-13T15:53:11;6.20;;;1.50;;
11935;SDS011;6027;48.576;9.180;2023-01-13T15:55:38;4.67;;;1.60;;
11935;SDS011;6027;48.576;9.180;2023-01-13T15:58:06;5.63;;;1.43;;
11935;SDS011;6027;48.576;9.180;2023-01-13T16:00:31;7.07;;;1.55;;
11935;SDS011;6027;48.576;9.180;2023-01-13T16:02:58;4.37;;;1.50;;
11935;SDS011;6027;48.576;9.180;2023-01-13T16:05:24;4.80;;;1.40;;
11935;SDS011;6027;48.576;9.180;2023-01-13T16:07:50;3.63;;;1.23;;
11935;SDS011;6027;48.576;9.180;2023-01-13T16:10:17;5.47;;;1.57;;
11935;SDS011;6027;48.576;9.180;2023-01-13T16:12:44;7.13;;;1.87;;
11935;SDS011;6027;48.576;9.180;2023-01-13T16:15:13;8.63;;;2.53;;
11935;SDS011;6027;48.576;9.180;2023-01-13T16:17:41;5.17;;;1.73;;
11935;SDS011;6027;48.576;9.180;2023-01-13T16:20:12;6.50;;;3.07;;
11935;SDS011;6027;48.576;9.180;2023-01-13T16:22:39;5.90;;;1.67;;
11935;SDS011;6027;48.576;9.180;2023-01-13T16:25:05;5.37;;;1.67;;
11935;SDS011;6027;48.576;9.180;2023-01-13T16:27:30;5.60;;;1.30;;
11935;SDS011;6027;48.576;9.180;2023-01-13T16:29:56;9.10;;;2.37;;
11935;SDS011;6027;48.576;9.180;2023-01-13T16:32:21;10.70;;;4.50;;
11935;SDS011;6027;48.576;9.180;2023-01-13T16:34:47;5.15;;;2.00;;
11935;SDS011;6027;48.576;9.180;2023-01-13T16:37:23;5.53;;;1.83;;
11935;SDS011;6027;48.576;9.180;2023-01-13T16:39:50;10.37;;;4.47;;
11935;SDS011;6027;48.576;9.180;2023-01-13T16:42:15;8.47;;;3.60;;
11935;SDS011;6027;48.576;9.180;2023-01-13T16:44:41;8.20;;;3.80;;
11935;SDS011;6027;48.576;9.180;2023-01-13T16:47:14;8.40;;;3.80;;
11935;SDS011;6027;48.576;9.180;2023-01-13T16:49:41;5.60;;;2.30;;
11935;SDS011;6027;48.576;9.180;2023-01-13T16:52:07;8.47;;;2.70;;
11935;SDS011;6027;48.576;9.180;2023-01-13T16:54:32;6.27;;;3.43;;
11935;SDS011;6027;48.576;9.180;2023-01-13T16:56:57;8.23;;;4.30;;
11935;SDS011;6027;48.576;9.180;2023-01-13T16:59:23;6.03;;;2.13;;
11935;SDS011;6027;48.576;9.180;2023-01-13T17:01:48;7.23;;;2.03;;
11935;SDS011;6027;48.576;9.180;2023-01-13T17:04:15;4.27;;;2.00;;
11935;SDS011;6027;48.576;9.180;2023-01-13T17:06:53;4.73;;;1.53;;
11935;SDS011;6027;48.576;9.180;2023-01-13T17:09:25;5.57;;;1.60;;
11935;SDS011;6027;48.576;9.180;2023-01-13T17:11:52;4.37;;;1.97;;
11935;SDS011;6027;48.576;9.180;2023-01-13T17:14:19;6.83;;;1.80;;
11935;SDS011;6027;48.576;9.180;2023-01-13T17:16:47;5.33;;;1.80;;
11935;SDS011;6027;48.576;9.180;2023-01-13T17:19:14;4.77;;;1.33;;
11935;SDS011;6027;48.576;9.180;2023-01-13T17:21:40;5.83;;;1.90;;
11935;SDS011;6027;48.576;9.180;2023-01-13T17:24:06;5.43;;;1.50;;
11935;SDS011;6027;48.576;9.180;2023-01-13T17:26:34;4.40;;;1.67;;
11935;SDS011;6027;48.576;9.180;2023-01-13T17:29:02;4.97;;;1.53;;
11935;SDS011;6027;48.576;9.180;2023-01-13T17:31:33;5.07;;;1.60;;
11935;SDS011;6027;48.576;9.180;2023-01-13T17:33:59;6.70;;;2.03;;
11935;SDS011;6027;48.576;9.180;2023-01-13T17:36:25;3.23;;;1.27;;
11935;SDS011;6027;48.576;9.180;2023-01-13T17:38:51;2.27;;;1.10;;
11935;SDS011;6027;48.576;9.180;2023-01-13T17:41:18;3.27;;;1.20;;
11935;SDS011;6027;48.576;9.180;2023-01-13T17:43:43;2.30;;;1.07;;
11935;SDS011;6027;48.576;9.180;2023-01-13T17:46:09;1.37;;;1.00;;
11935;SDS011;6027;48.576;9.180;2023-01-13T17:48:37;3.33;;;1.00;;
11935;SDS011;6027;48.576;9.180;2023-01-13T17:51:03;3.50;;;1.53;;
11935;SDS011;6027;48.576;9.180;2023-01-13T17:53:31;4.47;;;1.40;;